createdAt,value
2023-04-13T00:00:36.519Z,3.43
2023-04-13T00:03:18.388Z,3.45
2023-04-13T00:06:05.097Z,3.47
2023-04-13T00:08:39.079Z,3.48
2023-04-13T00:11:08.034Z,3.50
2023-04-13T00:13:59.782Z,3.51
2023-04-13T00:16:52.332Z,3.53
2023-04-13T00:19:31.463Z,3.54
2023-04-13T00:26:06.630Z,3.53
2023-04-13T00:29:20.000Z,3.51
2023-04-13T00:32:14.277Z,3.51
2023-04-13T00:35:22.183Z,3.50
2023-04-13T00:38:00.716Z,3.52
2023-04-13T00:40:54.581Z,3.56
2023-04-13T00:43:51.422Z,3.58
2023-04-13T00:54:17.018Z,3.59
2023-04-13T00:57:51.368Z,3.56
2023-04-13T01:01:07.803Z,3.53
2023-04-13T01:04:01.258Z,3.50
2023-04-13T01:07:27.476Z,3.44
2023-04-13T01:10:09.254Z,3.41
2023-04-13T01:12:37.761Z,3.39
2023-04-13T01:15:31.657Z,3.36
2023-04-13T01:18:10.646Z,3.32
2023-04-13T01:20:59.695Z,3.30
2023-04-13T01:23:44.024Z,3.28
2023-04-13T01:26:13.566Z,3.27
2023-04-13T01:28:51.083Z,3.25
2023-04-13T01:31:39.598Z,3.25
2023-04-13T01:34:07.994Z,3.26
2023-04-13T01:36:49.854Z,3.29
2023-04-13T01:39:22.130Z,3.29
2023-04-13T01:41:57.555Z,3.30
2023-04-13T01:44:25.192Z,3.34
2023-04-13T01:46:53.188Z,3.38
2023-04-13T01:49:48.152Z,3.42
2023-04-13T01:52:32.594Z,3.47
2023-04-13T01:55:00.623Z,3.50
2023-04-13T01:57:29.148Z,3.52
2023-04-13T01:59:56.223Z,3.56
2023-04-13T02:02:22.924Z,3.58
2023-04-13T02:04:49.476Z,3.62
2023-04-13T02:07:16.085Z,3.66
2023-04-13T02:09:46.181Z,3.72
2023-04-13T02:12:12.512Z,3.75
2023-04-13T02:14:39.033Z,3.80
2023-04-13T02:17:05.508Z,3.83
2023-04-13T02:19:32.814Z,3.85
2023-04-13T02:22:02.106Z,3.86
2023-04-13T02:24:28.857Z,3.86
2023-04-13T02:26:55.173Z,3.90
2023-04-13T02:29:21.681Z,3.94
2023-04-13T02:31:48.110Z,3.98
2023-04-13T02:34:14.649Z,3.98
2023-04-13T02:36:42.252Z,3.99
2023-04-13T02:39:09.029Z,3.98
2023-04-13T02:41:35.432Z,3.99
2023-04-13T02:44:02.291Z,4.00
2023-04-13T02:46:33.859Z,3.99
2023-04-13T02:49:10.488Z,3.99
2023-04-13T02:51:42.068Z,3.97
2023-04-13T02:54:10.070Z,3.92
2023-04-13T02:56:37.669Z,3.87
2023-04-13T02:59:04.517Z,3.83
2023-04-13T03:01:30.879Z,3.79
2023-04-13T03:03:58.031Z,3.73
2023-04-13T03:06:25.860Z,3.70
2023-04-13T03:08:55.791Z,3.67
2023-04-13T03:11:23.150Z,3.65
2023-04-13T03:13:55.008Z,3.65
2023-04-13T03:16:21.434Z,3.65
2023-04-13T03:18:47.907Z,3.65
2023-04-13T03:21:14.928Z,3.65
2023-04-13T03:23:58.194Z,3.65
2023-04-13T03:26:25.095Z,3.65
2023-04-13T03:28:52.343Z,3.66
2023-04-13T03:31:19.190Z,3.69
2023-04-13T03:33:46.531Z,3.70
2023-04-13T03:36:13.746Z,3.72
2023-04-13T03:38:40.936Z,3.76
2023-04-13T03:41:07.636Z,3.80
2023-04-13T03:43:34.323Z,3.82
2023-04-13T03:46:04.557Z,3.84
2023-04-13T03:48:31.503Z,3.86
2023-04-13T03:51:00.146Z,3.89
2023-04-13T03:53:32.543Z,3.93
2023-04-13T03:55:58.878Z,3.95
2023-04-13T03:58:25.267Z,3.95
2023-04-13T04:00:51.715Z,3.95
2023-04-13T04:03:22.953Z,3.96
2023-04-13T04:05:58.597Z,4.00
2023-04-13T04:08:26.341Z,4.05
2023-04-13T04:10:54.259Z,4.09
2023-04-13T04:13:21.273Z,4.11
2023-04-13T04:15:50.277Z,4.11
2023-04-13T04:18:16.835Z,4.13
2023-04-13T04:20:44.050Z,4.14
2023-04-13T04:23:10.609Z,4.15
2023-04-13T04:25:43.321Z,4.17
2023-04-13T04:28:09.789Z,4.19
2023-04-13T04:30:36.233Z,4.24
2023-04-13T04:33:02.768Z,4.29
2023-04-13T04:35:33.129Z,4.37
2023-04-13T04:38:00.558Z,4.43
2023-04-13T04:40:26.803Z,4.49
2023-04-13T04:42:53.972Z,4.55
2023-04-13T04:45:30.847Z,4.60
2023-04-13T04:47:58.455Z,4.66
2023-04-13T04:50:26.350Z,4.70
2023-04-13T04:52:58.807Z,4.74
2023-04-13T04:55:25.169Z,4.81
2023-04-13T04:57:51.572Z,4.89
2023-04-13T05:00:20.021Z,4.96
2023-04-13T05:02:57.914Z,5.04
2023-04-13T05:05:24.806Z,5.09
2023-04-13T05:07:51.310Z,5.14
2023-04-13T05:10:17.900Z,5.20
2023-04-13T05:12:50.302Z,5.26
2023-04-13T05:15:17.250Z,5.34
2023-04-13T05:17:44.326Z,5.40
2023-04-13T05:20:11.050Z,5.46
2023-04-13T05:22:45.345Z,5.53
2023-04-13T05:25:11.917Z,5.62
2023-04-13T05:27:38.526Z,5.74
2023-04-13T05:30:05.167Z,5.89
2023-04-13T05:32:33.566Z,6.01
2023-04-13T05:35:00.010Z,6.16
2023-04-13T05:37:26.983Z,6.38
2023-04-13T05:39:53.722Z,6.65
2023-04-13T05:42:23.461Z,6.93
2023-04-13T05:44:49.962Z,7.17
2023-04-13T05:47:18.499Z,7.41
2023-04-13T05:49:45.535Z,7.63
2023-04-13T05:52:12.331Z,7.83
2023-04-13T05:54:44.146Z,7.96
2023-04-13T05:57:10.468Z,8.04
2023-04-13T05:59:39.322Z,8.16
2023-04-13T06:02:05.936Z,8.30
2023-04-13T06:04:32.418Z,8.39
2023-04-13T07:03:12.550Z,10.89
2023-04-13T07:05:39.676Z,11.01
2023-04-13T07:08:10.333Z,11.10
2023-04-13T07:10:37.193Z,11.17
2023-04-13T07:13:03.692Z,11.20
2023-04-13T07:15:30.736Z,11.26
2023-04-13T07:17:57.447Z,11.33
2023-04-13T07:20:23.874Z,11.39
2023-04-13T08:23:41.762Z,16.11
2023-04-13T08:26:16.799Z,16.04
2023-04-13T08:28:44.697Z,15.92
2023-04-13T08:31:21.710Z,15.75
2023-04-13T08:42:45.781Z,15.81
2023-04-13T08:45:38.993Z,15.82
2023-04-13T09:12:17.082Z,15.98
2023-04-13T09:14:43.999Z,15.83
2023-04-13T09:17:21.188Z,15.75
2023-04-13T09:19:49.807Z,15.89
2023-04-13T10:36:04.364Z,21.73
2023-04-13T10:41:39.950Z,22.48
2023-04-13T10:49:47.940Z,23.99
2023-04-13T10:52:16.043Z,24.34
2023-04-13T11:04:10.346Z,22.85
2023-04-13T11:06:40.693Z,21.87
2023-04-13T11:09:08.136Z,21.37
2023-04-13T11:17:50.561Z,23.42
2023-04-13T11:20:17.273Z,25.21
2023-04-13T11:23:16.124Z,26.73
2023-04-13T11:25:59.871Z,27.84
2023-04-13T11:28:37.601Z,27.78
2023-04-13T11:31:04.119Z,26.64
2023-04-13T11:33:30.735Z,25.78
2023-04-13T11:39:14.935Z,23.58
2023-04-13T11:48:11.922Z,23.37
2023-04-13T11:50:50.201Z,23.36
2023-04-13T11:56:20.081Z,24.18
2023-04-13T11:59:11.150Z,24.48
2023-04-13T12:13:38.000Z,26.21
2023-04-13T12:16:11.293Z,27.96
2023-04-13T12:18:47.023Z,29.38
2023-04-13T12:21:24.109Z,30.24
2023-04-13T12:23:54.283Z,30.29
2023-04-13T12:26:59.151Z,31.39
2023-04-13T12:29:08.378Z,30.50
2023-04-13T12:31:38.764Z,29.08
2023-04-13T12:34:05.929Z,28.41
2023-04-13T12:36:33.768Z,27.59
2023-04-13T12:39:00.286Z,26.34
2023-04-13T12:41:26.911Z,24.97
2023-04-13T12:43:53.444Z,23.67
2023-04-13T12:46:19.789Z,22.84
2023-04-13T12:48:46.075Z,22.00
2023-04-13T12:51:12.697Z,21.32
2023-04-13T12:53:38.999Z,20.66
2023-04-13T12:56:08.585Z,20.04
2023-04-13T12:58:35.319Z,19.54
2023-04-13T13:01:01.773Z,19.12
2023-04-13T13:03:28.217Z,18.75
2023-04-13T13:05:55.006Z,18.47
2023-04-13T13:08:21.280Z,18.23
2023-04-13T13:10:47.568Z,18.04
2023-04-13T13:13:17.169Z,17.88
2023-04-13T13:15:43.439Z,17.75
2023-04-13T13:18:09.696Z,17.57
2023-04-13T13:20:36.568Z,17.40
2023-04-13T13:23:02.848Z,17.22
2023-04-13T13:25:29.258Z,17.02
2023-04-13T13:28:13.285Z,16.84
2023-04-13T13:30:40.956Z,16.69
2023-04-13T13:33:07.995Z,16.56
2023-04-13T13:35:34.315Z,16.51
2023-04-13T13:38:01.270Z,16.50
2023-04-13T13:40:27.783Z,16.46
2023-04-13T13:42:54.154Z,16.43
2023-04-13T14:07:42.529Z,15.91
2023-04-13T14:10:09.302Z,15.83
2023-04-13T14:12:39.483Z,15.72
2023-04-13T14:15:06.990Z,15.67
2023-04-13T14:17:33.733Z,15.63
2023-04-13T14:20:00.526Z,15.59
2023-04-13T14:22:27.010Z,15.54
2023-04-13T14:24:53.435Z,15.48
2023-04-13T14:27:19.911Z,15.44
2023-04-13T14:29:46.317Z,15.39
2023-04-13T14:32:12.870Z,15.30
2023-04-13T14:34:39.145Z,15.21
2023-04-13T14:37:05.582Z,15.18
2023-04-13T14:39:31.844Z,15.20
2023-04-13T14:41:58.114Z,15.24
2023-04-13T14:44:24.627Z,15.25
2023-04-13T14:46:51.102Z,15.19
2023-04-13T14:49:17.466Z,15.09
2023-04-13T14:51:43.958Z,14.93
2023-04-13T14:54:10.289Z,14.78
2023-04-13T14:56:36.635Z,14.64
2023-04-13T14:59:03.718Z,14.57
2023-04-13T15:01:30.208Z,14.52
2023-04-13T15:03:56.849Z,14.47
2023-04-13T15:06:23.582Z,14.43
2023-04-13T15:08:49.912Z,14.39
2023-04-13T15:11:16.264Z,14.34
2023-04-13T15:13:42.820Z,14.29
2023-04-13T15:16:09.120Z,14.22
2023-04-13T15:18:35.559Z,14.18
2023-04-13T15:21:05.326Z,14.13
2023-04-13T15:23:32.057Z,14.07
2023-04-13T15:25:58.726Z,14.01
2023-04-13T15:28:25.234Z,13.93
2023-04-13T15:30:51.517Z,13.81
2023-04-13T15:33:18.319Z,13.72
2023-04-13T15:35:45.127Z,13.61
2023-04-13T15:38:11.590Z,13.45
2023-04-13T15:40:37.923Z,13.32
2023-04-13T15:43:04.655Z,13.15
2023-04-13T15:45:31.627Z,13.02
2023-04-13T15:47:58.381Z,12.91
2023-04-13T15:50:25.017Z,12.82
2023-04-13T15:52:51.516Z,12.75
2023-04-13T15:55:18.011Z,12.68
2023-04-13T15:57:44.533Z,12.61
2023-04-13T16:00:11.094Z,12.54
2023-04-13T16:02:37.590Z,12.52
2023-04-13T16:05:04.684Z,12.51
2023-04-13T16:07:31.010Z,12.46
2023-04-13T16:09:57.355Z,12.43
2023-04-13T16:12:27.569Z,12.41
2023-04-13T16:14:53.859Z,12.35
2023-04-13T16:17:20.221Z,12.28
2023-04-13T16:19:46.959Z,12.23
2023-04-13T16:22:13.965Z,12.16
2023-04-13T16:24:45.733Z,12.08
2023-04-13T16:27:12.076Z,12.01
2023-04-13T16:29:38.447Z,11.96
2023-04-13T16:32:04.890Z,11.92
2023-04-13T16:34:31.220Z,11.90
2023-04-13T16:36:58.035Z,11.86
2023-04-13T16:39:24.661Z,11.80
2023-04-13T16:41:50.934Z,11.76
2023-04-13T16:44:17.573Z,11.64
2023-04-13T16:46:44.164Z,11.53
2023-04-13T16:49:10.836Z,11.43
2023-04-13T16:51:37.319Z,11.30
2023-04-13T16:54:04.106Z,11.23
2023-04-13T16:56:39.906Z,11.19
2023-04-13T16:59:10.371Z,11.15
2023-04-13T17:01:39.207Z,11.11
2023-04-13T17:04:06.744Z,11.08
2023-04-13T17:06:37.371Z,11.04
2023-04-13T17:09:07.086Z,10.99
2023-04-13T17:11:33.900Z,10.89
2023-04-13T17:14:00.278Z,10.85
2023-04-13T17:16:26.943Z,10.83
2023-04-13T17:18:53.344Z,10.79
2023-04-13T17:21:19.951Z,10.78
2023-04-13T17:23:46.705Z,10.76
2023-04-13T17:26:13.950Z,10.73
2023-04-13T17:28:40.486Z,10.68
2023-04-13T17:31:34.612Z,10.60
2023-04-13T17:34:10.992Z,10.49
2023-04-13T17:36:38.653Z,10.44
2023-04-13T17:39:05.042Z,10.35
2023-04-13T17:41:31.986Z,10.30
2023-04-13T17:44:00.615Z,10.25
2023-04-13T17:46:30.965Z,10.19
2023-04-13T17:49:22.978Z,10.14
2023-04-13T17:51:49.879Z,10.11
2023-04-13T17:54:16.661Z,10.06
2023-04-13T17:56:43.726Z,10.02
2023-04-13T17:59:11.483Z,9.99
2023-04-13T18:01:38.095Z,9.92
2023-04-13T18:04:05.148Z,9.87
2023-04-13T18:06:34.492Z,9.84
2023-04-13T18:09:01.653Z,9.79
2023-04-13T18:11:28.536Z,9.74
